Terminal Aerodrome Forecast
Issued by NWS

Home | Current Version | Previous Version | Text Only | Print | Product List | Glossary On
Versions: 1 2 3 4 5 6 7 8 9 10 11 12 13 14 15
000
FTUS41 KBTV 211731
TAFSLK
TAF
KSLK 211731Z 2118/2218 24005KT P6SM OVC018
     FM220000 VRB02KT 6SM BR OVC020
     FM221100 07004KT 5SM BR OVC015
     FM221600 08006KT P6SM OVC020=

USA.gov is the U.S. government's official web portal to all federal, state and local government web resources and services.